createdAt,value
2023-04-17T00:01:22.693Z,59.25
2023-04-17T00:03:52.148Z,59.42
2023-04-17T00:06:19.260Z,59.55
2023-04-17T00:08:46.312Z,60.27
2023-04-17T00:11:13.196Z,60.05
2023-04-17T00:13:40.259Z,60.54
2023-04-17T00:16:10.112Z,60.95
2023-04-17T00:18:37.138Z,62.29
2023-04-17T00:21:04.092Z,63.20
2023-04-17T00:23:31.153Z,60.82
2023-04-17T00:25:58.195Z,60.82
2023-04-17T00:28:25.259Z,61.46
2023-04-17T00:30:52.347Z,62.26
2023-04-17T00:33:19.777Z,62.39
2023-04-17T00:35:47.329Z,62.61
2023-04-17T00:38:14.215Z,62.42
2023-04-17T00:40:41.632Z,61.45
2023-04-17T00:43:08.691Z,61.74
2023-04-17T00:45:35.577Z,62.41
2023-04-17T00:48:03.674Z,62.73
2023-04-17T00:50:31.108Z,63.05
2023-04-17T00:52:58.350Z,63.16
2023-04-17T00:55:26.042Z,63.25
2023-04-17T00:57:52.904Z,63.24
2023-04-17T01:00:19.748Z,63.25
2023-04-17T01:02:47.031Z,63.40
2023-04-17T01:05:14.216Z,63.42
2023-04-17T01:07:41.549Z,63.59
2023-04-17T01:10:09.148Z,63.64
2023-04-17T01:12:36.215Z,64.09
2023-04-17T01:15:03.281Z,64.15
2023-04-17T01:17:30.217Z,64.30
2023-04-17T01:19:57.645Z,64.41
2023-04-17T01:22:24.640Z,64.57
2023-04-17T01:24:54.024Z,64.38
2023-04-17T01:27:22.043Z,65.07
2023-04-17T01:29:49.158Z,65.59
2023-04-17T01:32:17.218Z,65.48
2023-04-17T01:34:44.285Z,66.31
2023-04-17T01:37:11.333Z,66.26
2023-04-17T01:39:38.297Z,63.00
2023-04-17T01:42:05.850Z,63.97
2023-04-17T01:44:32.919Z,65.81
2023-04-17T01:46:59.856Z,65.60
2023-04-17T01:49:26.935Z,65.85
2023-04-17T01:51:53.985Z,65.67
2023-04-17T01:54:21.828Z,66.47
2023-04-17T01:56:48.795Z,66.58
2023-04-17T01:59:15.756Z,67.14
2023-04-17T02:01:42.708Z,67.65
2023-04-17T02:04:09.937Z,67.73
2023-04-17T02:06:36.993Z,68.80
2023-04-17T02:09:04.029Z,68.62
2023-04-17T02:11:31.228Z,68.28
2023-04-17T02:13:58.246Z,67.66
2023-04-17T02:16:25.405Z,67.64
2023-04-17T02:18:52.468Z,68.20
2023-04-17T02:21:19.414Z,68.44
2023-04-17T02:23:46.387Z,68.26
2023-04-17T02:26:13.276Z,68.32
2023-04-17T02:28:42.791Z,67.94
2023-04-17T02:31:11.052Z,68.83
2023-04-17T02:33:38.572Z,68.45
2023-04-17T02:36:06.722Z,68.77
2023-04-17T02:38:37.909Z,69.68
2023-04-17T02:41:05.540Z,70.93
2023-04-17T02:43:32.707Z,71.21
2023-04-17T02:46:00.712Z,70.75
2023-04-17T02:48:27.648Z,70.69
2023-04-17T02:50:55.015Z,69.76
2023-04-17T02:53:22.235Z,70.34
2023-04-17T02:55:49.155Z,70.22
2023-04-17T02:58:17.530Z,70.03
2023-04-17T03:00:44.516Z,70.12
2023-04-17T03:03:15.073Z,69.46
2023-04-17T03:05:42.278Z,69.95
2023-04-17T03:08:09.505Z,70.02
2023-04-17T03:10:44.843Z,69.45
2023-04-17T03:13:11.855Z,69.69
2023-04-17T03:15:38.664Z,70.00
2023-04-17T03:18:05.691Z,70.71
2023-04-17T03:20:32.668Z,71.12
2023-04-17T03:22:59.558Z,71.18
2023-04-17T03:25:26.501Z,71.11
2023-04-17T03:27:53.685Z,72.03
2023-04-17T03:30:22.535Z,71.81
2023-04-17T03:32:50.893Z,71.67
2023-04-17T03:35:17.935Z,71.99
2023-04-17T03:37:45.032Z,72.38
2023-04-17T03:40:12.665Z,71.95
2023-04-17T03:42:39.972Z,72.00
2023-04-17T03:45:07.270Z,72.42
2023-04-17T03:47:34.357Z,71.79
2023-04-17T03:50:01.487Z,71.08
2023-04-17T03:52:31.704Z,70.50
2023-04-17T03:54:58.741Z,70.29
2023-04-17T03:57:25.887Z,70.46
2023-04-17T03:59:52.996Z,70.93
2023-04-17T04:02:20.183Z,70.29
2023-04-17T04:04:49.886Z,69.94
2023-04-17T04:07:16.957Z,69.95
2023-04-17T04:09:44.851Z,70.28
2023-04-17T04:12:11.931Z,71.73
2023-04-17T04:14:42.070Z,70.91
2023-04-17T04:17:09.979Z,70.58
2023-04-17T04:19:37.885Z,70.49
2023-04-17T04:22:06.914Z,70.30
2023-04-17T04:24:42.282Z,70.23
2023-04-17T04:27:12.647Z,70.15
2023-04-17T04:29:40.096Z,70.31
2023-04-17T04:32:13.054Z,70.29
2023-04-17T04:34:44.165Z,70.92
2023-04-17T04:37:14.987Z,70.58
2023-04-17T04:39:43.847Z,70.56
2023-04-17T04:42:21.265Z,70.18
2023-04-17T04:45:00.603Z,70.04
2023-04-17T04:47:28.998Z,70.08
2023-04-17T04:49:56.341Z,70.02
2023-04-17T04:52:23.475Z,69.75
2023-04-17T04:54:52.805Z,69.60
2023-04-17T04:57:19.835Z,69.77
2023-04-17T04:59:47.167Z,69.66
2023-04-17T05:02:36.407Z,69.53
2023-04-17T05:05:04.882Z,69.53
2023-04-17T05:07:32.814Z,69.28
2023-04-17T05:10:00.310Z,69.50
2023-04-17T05:12:28.173Z,69.60
2023-04-17T05:14:55.153Z,69.28
2023-04-17T05:17:22.535Z,69.20
2023-04-17T05:19:50.258Z,69.25
2023-04-17T05:22:18.557Z,68.93
2023-04-17T05:24:58.079Z,68.74
2023-04-17T05:27:26.803Z,68.38
2023-04-17T05:29:55.989Z,68.36
2023-04-17T05:32:23.152Z,68.22
2023-04-17T05:35:00.138Z,67.64
2023-04-17T05:37:27.870Z,67.36
2023-04-17T05:39:55.459Z,67.10
2023-04-17T05:42:22.491Z,66.92
2023-04-17T05:44:49.639Z,66.80
2023-04-17T05:47:16.943Z,67.04
2023-04-17T05:49:44.264Z,67.38
2023-04-17T05:52:11.522Z,67.49
2023-04-17T05:54:41.747Z,67.30
2023-04-17T05:57:09.010Z,67.34
2023-04-17T05:59:36.060Z,67.57
2023-04-17T06:02:04.469Z,67.49
2023-04-17T06:04:33.478Z,67.25
2023-04-17T06:07:02.470Z,66.90
2023-04-17T06:09:29.894Z,66.68
2023-04-17T06:11:56.846Z,66.50
2023-04-17T06:14:24.204Z,66.39
2023-04-17T06:16:51.477Z,65.97
2023-04-17T06:19:18.724Z,66.23
2023-04-17T06:21:45.883Z,66.02
2023-04-17T06:24:12.959Z,65.76
2023-04-17T06:26:44.593Z,65.61
2023-04-17T06:29:13.457Z,65.41
2023-04-17T06:31:40.744Z,65.57
2023-04-17T06:34:07.905Z,65.55
2023-04-17T06:36:38.352Z,65.58
2023-04-17T06:39:05.226Z,65.44
2023-04-17T06:41:32.586Z,64.95
2023-04-17T06:44:00.456Z,65.01
2023-04-17T06:46:40.130Z,65.00
2023-04-17T06:49:07.165Z,64.81
2023-04-17T06:51:34.057Z,64.63
2023-04-17T06:54:00.945Z,64.62
2023-04-17T06:56:27.890Z,64.65
2023-04-17T06:58:54.814Z,64.61
2023-04-17T07:01:21.817Z,64.76
2023-04-17T07:03:49.135Z,64.77
2023-04-17T07:06:16.680Z,64.70
2023-04-17T07:08:43.733Z,64.58
2023-04-17T07:11:10.786Z,64.70
2023-04-17T07:13:38.144Z,64.65
2023-04-17T07:16:05.716Z,64.51
2023-04-17T07:18:32.757Z,64.34
2023-04-17T07:21:00.232Z,64.12
2023-04-17T07:23:27.283Z,64.09
2023-04-17T07:25:54.387Z,64.15
2023-04-17T07:28:21.385Z,64.29
2023-04-17T07:30:48.337Z,64.24
2023-04-17T07:33:15.604Z,64.01
2023-04-17T07:35:42.683Z,63.68
2023-04-17T07:38:09.697Z,63.52
2023-04-17T07:40:36.897Z,62.97
2023-04-17T07:43:04.019Z,62.77
2023-04-17T07:45:31.381Z,62.29
2023-04-17T07:47:58.481Z,62.25
2023-04-17T07:50:26.193Z,62.09
2023-04-17T07:52:53.453Z,61.74
2023-04-17T07:55:20.504Z,61.52
2023-04-17T07:57:49.644Z,61.21
2023-04-17T08:00:17.009Z,61.15
2023-04-17T08:02:44.061Z,60.97
2023-04-17T08:05:11.721Z,60.90
2023-04-17T08:07:39.669Z,60.69
2023-04-17T08:10:06.745Z,60.50
2023-04-17T08:12:33.599Z,60.41
2023-04-17T08:15:00.532Z,60.10
2023-04-17T08:17:29.582Z,60.03
2023-04-17T08:20:01.620Z,59.85
2023-04-17T08:22:28.640Z,59.95
2023-04-17T08:24:59.210Z,59.94
2023-04-17T08:27:26.340Z,59.93
2023-04-17T08:29:53.892Z,60.04
2023-04-17T08:32:21.382Z,59.91
2023-04-17T08:34:48.499Z,59.44
2023-04-17T08:37:15.456Z,59.21
2023-04-17T08:39:42.400Z,59.03
2023-04-17T08:42:13.339Z,58.78
2023-04-17T08:44:45.107Z,58.57
2023-04-17T08:47:12.586Z,58.31
2023-04-17T08:49:42.900Z,58.41
2023-04-17T08:52:10.393Z,58.38
2023-04-17T08:54:38.436Z,58.19
2023-04-17T08:57:05.704Z,58.23
2023-04-17T08:59:33.152Z,58.37
2023-04-17T09:02:07.092Z,58.53
2023-04-17T09:04:35.263Z,57.89
2023-04-17T09:07:02.912Z,57.20
2023-04-17T09:09:56.498Z,56.78
2023-04-17T09:12:24.888Z,56.47
2023-04-17T09:14:52.313Z,56.10
2023-04-17T09:17:19.894Z,55.27
2023-04-17T09:20:13.341Z,54.72
2023-04-17T09:22:40.750Z,53.91
2023-04-17T09:25:17.513Z,54.00
2023-04-17T09:27:45.238Z,53.07
2023-04-17T09:30:13.218Z,53.21
2023-04-17T09:32:40.324Z,53.13
2023-04-17T09:35:07.733Z,53.06
2023-04-17T09:37:48.397Z,52.99
2023-04-17T09:40:15.555Z,52.82
2023-04-17T09:43:01.870Z,52.96
2023-04-17T09:45:34.969Z,52.96
2023-04-17T09:48:09.230Z,52.60
2023-04-17T09:50:37.390Z,52.33
2023-04-17T09:53:06.751Z,52.63
2023-04-17T09:55:35.971Z,52.75
2023-04-17T09:58:04.109Z,52.67
2023-04-17T10:00:31.191Z,52.99
2023-04-17T10:02:58.933Z,52.81
2023-04-17T10:05:28.376Z,52.50
2023-04-17T10:07:56.020Z,52.85
2023-04-17T10:10:31.684Z,52.64
2023-04-17T10:13:02.918Z,53.07
2023-04-17T10:15:30.159Z,52.88
2023-04-17T10:18:16.900Z,53.15
2023-04-17T10:20:44.352Z,53.02
2023-04-17T10:23:37.693Z,52.87
2023-04-17T10:26:25.982Z,52.78
2023-04-17T10:28:53.698Z,52.98
2023-04-17T10:31:23.027Z,52.52
2023-04-17T10:33:52.032Z,52.16
2023-04-17T10:36:37.460Z,51.65
2023-04-17T10:39:14.615Z,51.62
2023-04-17T10:42:00.169Z,51.12
2023-04-17T10:44:27.139Z,51.05
2023-04-17T10:46:54.004Z,50.57
2023-04-17T10:49:21.216Z,50.85
2023-04-17T10:51:48.500Z,50.69
2023-04-17T10:54:15.918Z,50.73
2023-04-17T10:56:47.649Z,50.56
2023-04-17T10:59:16.340Z,50.36
2023-04-17T11:01:43.581Z,50.39
2023-04-17T11:04:18.245Z,49.89
2023-04-17T11:06:45.105Z,50.11
2023-04-17T11:09:12.612Z,50.16
2023-04-17T11:11:44.730Z,49.68
2023-04-17T11:14:16.480Z,49.68
2023-04-17T11:16:44.899Z,49.66
2023-04-17T11:19:13.170Z,49.50
2023-04-17T11:21:44.006Z,48.41
2023-04-17T11:24:11.652Z,47.59
2023-04-17T11:26:42.896Z,47.09
2023-04-17T11:29:23.049Z,46.70
2023-04-17T11:31:51.722Z,46.46
2023-04-17T11:34:19.203Z,46.02
2023-04-17T11:36:58.981Z,46.44
2023-04-17T11:39:28.177Z,46.07
2023-04-17T11:41:56.576Z,45.57
2023-04-17T11:44:24.021Z,45.51
2023-04-17T11:46:55.466Z,45.34
2023-04-17T11:49:29.599Z,44.94
2023-04-17T11:51:58.644Z,45.17
2023-04-17T11:54:26.269Z,44.76
2023-04-17T11:57:07.279Z,43.66
2023-04-17T11:59:37.924Z,44.00
2023-04-17T12:02:06.573Z,44.04
2023-04-17T12:04:34.615Z,44.16
2023-04-17T12:07:02.896Z,43.76
2023-04-17T12:09:33.250Z,43.65
2023-04-17T12:12:03.934Z,43.47
2023-04-17T12:14:31.192Z,44.11
2023-04-17T12:16:58.389Z,43.44
2023-04-17T12:19:28.702Z,42.23
2023-04-17T12:21:56.024Z,41.16
2023-04-17T12:24:24.410Z,41.08
2023-04-17T12:26:51.942Z,40.00
2023-04-17T12:29:21.977Z,39.89
2023-04-17T12:31:51.303Z,40.21
2023-04-17T12:34:18.260Z,39.73
2023-04-17T12:36:45.734Z,40.23
2023-04-17T12:39:13.157Z,40.56
2023-04-17T12:41:40.274Z,38.75
2023-04-17T12:44:07.180Z,37.75
2023-04-17T12:46:34.034Z,38.23
2023-04-17T12:49:00.845Z,38.04
2023-04-17T12:51:27.989Z,39.07
2023-04-17T12:53:55.228Z,39.36
2023-04-17T12:56:22.357Z,39.88
2023-04-17T12:58:49.457Z,39.67
2023-04-17T13:01:16.388Z,39.37
2023-04-17T13:03:43.697Z,39.15
2023-04-17T13:06:10.985Z,38.68
2023-04-17T13:08:37.824Z,38.59
2023-04-17T13:11:04.755Z,38.79
2023-04-17T13:13:31.588Z,39.14
2023-04-17T13:15:58.460Z,39.68
2023-04-17T13:18:25.829Z,39.75
2023-04-17T13:20:52.632Z,39.36
2023-04-17T13:23:19.692Z,38.66
2023-04-17T13:25:46.786Z,37.15
2023-04-17T13:28:13.604Z,37.14
2023-04-17T13:30:40.601Z,37.24
2023-04-17T13:33:07.855Z,36.49
2023-04-17T13:35:34.905Z,37.31
2023-04-17T13:38:02.658Z,37.14
2023-04-17T13:40:30.669Z,37.86
2023-04-17T13:42:58.064Z,37.83
2023-04-17T13:45:25.076Z,37.73
2023-04-17T13:47:52.139Z,38.12
2023-04-17T13:50:19.176Z,37.38
2023-04-17T13:52:46.258Z,37.63
2023-04-17T13:55:15.597Z,38.03
2023-04-17T13:57:42.548Z,38.59
2023-04-17T14:00:10.361Z,38.87
2023-04-17T14:02:37.815Z,38.84
2023-04-17T14:05:05.497Z,38.79
2023-04-17T14:07:32.541Z,38.83
2023-04-17T14:09:59.593Z,39.04
2023-04-17T14:12:26.685Z,38.94
2023-04-17T14:14:53.819Z,38.93
2023-04-17T14:17:20.880Z,38.74
2023-04-17T14:19:47.863Z,38.37
2023-04-17T14:22:14.790Z,38.86
2023-04-17T14:24:41.779Z,38.93
2023-04-17T14:27:08.968Z,39.15
2023-04-17T14:29:35.971Z,39.13
2023-04-17T14:32:02.773Z,39.37
2023-04-17T14:34:29.671Z,39.59
2023-04-17T14:36:58.271Z,39.54
2023-04-17T14:39:25.189Z,39.11
2023-04-17T14:41:52.178Z,39.53
2023-04-17T14:44:19.868Z,39.94
2023-04-17T14:46:47.177Z,40.26
2023-04-17T14:49:14.342Z,40.01
2023-04-17T14:51:41.409Z,40.25
2023-04-17T14:54:08.620Z,40.64
2023-04-17T14:56:35.651Z,40.62
2023-04-17T14:59:02.973Z,40.59
2023-04-17T15:01:29.982Z,40.56
2023-04-17T15:03:57.214Z,40.26
2023-04-17T15:06:24.286Z,39.62
2023-04-17T15:08:51.198Z,39.08
2023-04-17T15:11:18.487Z,39.15
2023-04-17T15:13:45.343Z,38.95
2023-04-17T15:16:12.363Z,38.86
2023-04-17T15:18:39.484Z,39.04
2023-04-17T15:21:06.691Z,39.27
2023-04-17T15:23:34.221Z,38.99
2023-04-17T15:26:01.178Z,38.74
2023-04-17T15:28:28.004Z,38.85
2023-04-17T15:30:55.574Z,39.10
2023-04-17T15:33:22.416Z,39.26
2023-04-17T15:35:53.682Z,39.48
2023-04-17T15:38:20.801Z,39.24
2023-04-17T15:40:47.711Z,39.37
2023-04-17T15:43:14.801Z,39.69
2023-04-17T15:45:41.790Z,39.84
2023-04-17T15:48:09.661Z,40.38
2023-04-17T15:50:37.172Z,40.53
2023-04-17T15:53:03.999Z,40.94
2023-04-17T15:55:32.562Z,40.88
2023-04-17T15:57:59.384Z,41.27
2023-04-17T16:00:26.378Z,41.61
2023-04-17T16:02:53.374Z,41.55
2023-04-17T16:05:20.449Z,41.61
2023-04-17T16:07:47.827Z,41.78
2023-04-17T16:10:15.173Z,41.93
2023-04-17T16:12:42.855Z,42.24
2023-04-17T16:15:18.476Z,42.40
2023-04-17T16:17:45.717Z,42.52
2023-04-17T16:20:12.868Z,42.80
2023-04-17T16:22:40.297Z,42.91
2023-04-17T16:25:07.530Z,43.28
2023-04-17T16:27:34.431Z,43.43
2023-04-17T16:30:02.511Z,43.54
2023-04-17T16:32:31.101Z,43.77
2023-04-17T16:34:58.316Z,43.59
2023-04-17T16:37:25.234Z,43.70
2023-04-17T16:39:52.135Z,43.81
2023-04-17T16:42:19.111Z,44.01
2023-04-17T16:44:46.216Z,44.04
2023-04-17T16:47:14.530Z,44.12
2023-04-17T16:49:42.169Z,44.24
2023-04-17T16:52:09.410Z,44.30
2023-04-17T16:54:36.198Z,44.46
2023-04-17T16:57:04.165Z,44.52
2023-04-17T16:59:31.332Z,44.80
2023-04-17T17:02:00.060Z,44.92
2023-04-17T17:04:28.414Z,45.14
2023-04-17T17:06:55.405Z,45.11
2023-04-17T17:09:22.388Z,45.14
2023-04-17T17:11:49.294Z,45.16
2023-04-17T17:14:16.304Z,45.35
2023-04-17T17:16:43.403Z,45.51
2023-04-17T17:19:10.508Z,45.71
2023-04-17T17:21:37.790Z,45.74
2023-04-17T17:24:04.874Z,45.88
2023-04-17T17:26:31.805Z,46.12
2023-04-17T17:28:58.686Z,46.17
2023-04-17T17:31:25.637Z,46.32
2023-04-17T17:33:54.513Z,46.31
2023-04-17T17:36:21.429Z,46.50
2023-04-17T17:38:54.801Z,46.55
2023-04-17T17:41:22.445Z,46.69
2023-04-17T17:43:49.269Z,46.80
2023-04-17T17:46:16.300Z,46.95
2023-04-17T17:48:43.330Z,47.16
2023-04-17T17:51:10.264Z,47.41
2023-04-17T17:53:37.025Z,47.58
2023-04-17T17:56:04.073Z,47.71
2023-04-17T17:58:30.960Z,47.92
2023-04-17T18:00:57.924Z,47.95
2023-04-17T18:03:24.977Z,48.05
2023-04-17T18:05:52.177Z,48.19
2023-04-17T18:08:19.217Z,48.37
2023-04-17T18:10:46.137Z,48.40
2023-04-17T18:13:13.197Z,48.61
2023-04-17T18:15:40.125Z,48.75
2023-04-17T18:18:07.445Z,48.71
2023-04-17T18:20:38.944Z,48.70
2023-04-17T18:23:06.108Z,48.70
2023-04-17T18:25:35.151Z,48.93
2023-04-17T18:28:03.188Z,49.03
2023-04-17T18:30:30.242Z,49.06
2023-04-17T18:32:57.453Z,49.15
2023-04-17T18:35:24.985Z,49.22
2023-04-17T18:37:52.650Z,49.53
2023-04-17T18:40:19.510Z,49.51
2023-04-17T18:42:47.834Z,49.41
2023-04-17T18:45:15.382Z,49.40
2023-04-17T18:47:45.212Z,49.86
2023-04-17T18:50:12.304Z,49.85
2023-04-17T18:52:46.217Z,49.90
2023-04-17T18:55:17.218Z,49.98
2023-04-17T18:57:44.108Z,50.35
2023-04-17T19:00:11.636Z,50.34
2023-04-17T19:02:40.121Z,50.10
2023-04-17T19:05:07.433Z,50.38
2023-04-17T19:07:34.360Z,50.22
2023-04-17T19:10:01.295Z,50.27
2023-04-17T19:12:30.093Z,51.63
2023-04-17T19:14:57.139Z,51.25
2023-04-17T19:17:25.077Z,51.28
2023-04-17T19:19:52.009Z,51.23
2023-04-17T19:22:19.473Z,51.11
2023-04-17T19:24:49.348Z,51.09
2023-04-17T19:27:16.328Z,51.24
2023-04-17T19:29:43.373Z,51.42
2023-04-17T19:32:10.817Z,51.99
2023-04-17T19:34:37.967Z,51.67
2023-04-17T19:37:05.335Z,51.71
2023-04-17T19:39:32.278Z,51.81
2023-04-17T19:41:59.256Z,51.86
2023-04-17T19:44:27.956Z,52.02
2023-04-17T19:46:56.222Z,52.17
2023-04-17T19:49:23.250Z,52.25
2023-04-17T19:51:50.203Z,52.33
2023-04-17T19:54:17.359Z,52.22
2023-04-17T19:56:44.513Z,52.37
2023-04-17T19:59:13.140Z,52.64
2023-04-17T20:01:42.919Z,52.47
2023-04-17T20:04:10.980Z,52.45
2023-04-17T20:06:39.275Z,52.39
2023-04-17T20:09:06.200Z,52.41
2023-04-17T20:11:33.302Z,52.49
2023-04-17T20:14:00.330Z,52.54
2023-04-17T20:16:27.465Z,52.70
2023-04-17T20:18:56.093Z,52.70
2023-04-17T20:21:23.666Z,52.83
2023-04-17T20:23:50.795Z,53.01
2023-04-17T20:26:18.078Z,52.59
2023-04-17T20:28:45.434Z,52.48
2023-04-17T20:31:12.628Z,52.56
2023-04-17T20:33:39.767Z,52.50
2023-04-17T20:36:06.677Z,52.32
2023-04-17T20:38:33.866Z,52.34
2023-04-17T20:41:00.893Z,52.53
2023-04-17T20:43:27.835Z,52.32
2023-04-17T20:45:55.139Z,52.30
2023-04-17T20:48:22.266Z,52.23
2023-04-17T20:50:49.308Z,51.99
2023-04-17T20:53:16.256Z,52.03
2023-04-17T20:55:43.616Z,51.97
2023-04-17T20:58:10.768Z,51.70
2023-04-17T21:00:44.416Z,51.62
2023-04-17T21:03:14.580Z,51.70
2023-04-17T21:05:41.654Z,51.58
2023-04-17T21:08:08.601Z,51.54
2023-04-17T21:10:35.655Z,51.57
2023-04-17T21:13:02.707Z,51.61
2023-04-17T21:15:30.594Z,51.59
2023-04-17T21:17:57.608Z,51.54
2023-04-17T21:20:24.889Z,51.54
2023-04-17T21:22:51.777Z,51.56
2023-04-17T21:25:18.894Z,51.54
2023-04-17T21:27:46.007Z,51.41
2023-04-17T21:30:13.069Z,51.54
2023-04-17T21:32:40.373Z,51.43
2023-04-17T21:35:07.765Z,51.45
2023-04-17T21:37:34.674Z,51.59
2023-04-17T21:40:01.866Z,51.41
2023-04-17T21:42:29.005Z,51.26
2023-04-17T21:44:56.057Z,51.26
2023-04-17T21:47:23.126Z,51.22
2023-04-17T21:49:50.052Z,51.05
2023-04-17T21:52:17.140Z,51.08
2023-04-17T21:54:44.268Z,50.96
2023-04-17T21:57:11.260Z,50.95
2023-04-17T21:59:38.210Z,50.82
2023-04-17T22:02:05.667Z,50.89
2023-04-17T22:04:32.715Z,50.84
2023-04-17T22:07:00.362Z,50.57
2023-04-17T22:09:29.118Z,50.49
2023-04-17T22:11:56.624Z,50.42
2023-04-17T22:14:23.568Z,50.45
2023-04-17T22:16:50.669Z,50.36
2023-04-17T22:19:17.780Z,50.14
2023-04-17T22:21:44.600Z,50.18
2023-04-17T22:24:12.024Z,50.21
2023-04-17T22:26:39.323Z,50.28
2023-04-17T22:29:06.218Z,50.41
2023-04-17T22:31:33.509Z,50.42
2023-04-17T22:34:00.589Z,50.45
2023-04-17T22:36:27.898Z,50.32
2023-04-17T22:38:54.707Z,50.35
2023-04-17T22:41:21.750Z,50.24
2023-04-17T22:43:49.062Z,50.16
2023-04-17T22:46:16.098Z,50.26
2023-04-17T22:48:46.576Z,50.26
2023-04-17T22:51:14.672Z,50.25
2023-04-17T22:53:42.261Z,50.21
2023-04-17T22:56:11.330Z,50.11
2023-04-17T22:58:38.279Z,50.41
2023-04-17T23:01:05.465Z,50.54
2023-04-17T23:03:33.740Z,50.53
2023-04-17T23:06:00.986Z,50.78
2023-04-17T23:08:29.312Z,50.67
2023-04-17T23:10:59.830Z,50.96
2023-04-17T23:13:27.083Z,51.03
2023-04-17T23:15:54.754Z,51.25
2023-04-17T23:18:21.842Z,51.28
2023-04-17T23:20:49.426Z,50.95
2023-04-17T23:23:17.971Z,50.96
2023-04-17T23:25:44.880Z,51.06
2023-04-17T23:28:11.842Z,50.91
2023-04-17T23:30:38.972Z,51.09
2023-04-17T23:33:06.293Z,50.91
2023-04-17T23:35:33.140Z,50.68
2023-04-17T23:38:00.201Z,50.71
2023-04-17T23:40:27.592Z,50.11
2023-04-17T23:42:54.650Z,50.08
2023-04-17T23:45:21.743Z,50.08
2023-04-17T23:47:48.897Z,50.28
2023-04-17T23:50:15.916Z,50.18
2023-04-17T23:52:42.864Z,49.99
2023-04-17T23:55:10.019Z,50.20
2023-04-17T23:57:38.139Z,50.18
